Airfield :
LOGIN :

Register | Disclaimer

   EN    FR    IT 

 










Legend :    VFR   Marginal VFR   IFR   Intensive IFR   Very Intensive IFR
Visi :
Ceiling :
>= 8 km
>= 3000ft
5 to 8 km
1000 to 3000 ft
1500m to 5 km
500 to 1000 ft
800 to 1500m
200 to 500 ft
< 800m
< 200 ft
Symbols :   Thunderstorms  Fog  Heavy snow  Heavy precipitations  Wind > 20 kt
SIGMETs :     Misc.  Thunderstorms  Icing  Turbulence  Mountain Waves  Volcanic Ashes







- Airport Elevation : 53 ft
- IATA code : HAM


EDDH - Hamburg

CURRENT METAR :
  • 160250Z 31002KT 9999 MIFG NSC 12/12 Q1016 NOSIG

EXPIRED METARs :
  • 160220Z VRB02KT 9999 MIFG NSC 13/12 Q1016 NOSIG
  • 160150Z VRB02KT 9999 MIFG NSC 13/12 Q1016 NOSIG
  • 160120Z VRB01KT 9999 2400NW R15/0700D BCFG MIFG NSC 13/12 Q1016 NOSIG
  • 160050Z 32001KT 9999 R15/1000VP2000D MIFG NSC 13/12 Q1016 NOSIG
  • 160020Z VRB01KT CAVOK 14/12 Q1016 NOSIG

TAF TAF EDDH
Valid from the 16 at 00:00 until the 17 at 06:00 UTC


152300Z 1600/1706 VRB02KT CAVOK
BECMG 1606/1608 05007KT
BECMG 1620/1622 VRB02KT
No reported NOTAMs for that airfield.



MET'MAP, your aeronautical weather chart ! - Copyright ORBIFLY December 2007 - Disclaimer

ORBIFLY MET'MAP TEAM :

Programming & Development : Alexandra Zaïnal
Concept & Development : Baudouin d'Aumeries
Co-Development & Prog : Marc-Olivier Méhu
Technical & hardware support : Manuel Goepfert

Contact : metmap@orbifly.com




SOURCES & CREDITS :

   NOAA